createdAt,value
2018-01-01T00:01:42.388Z,64.83
2018-01-01T00:04:10.046Z,48.90
2018-01-01T00:06:37.601Z,133.67
2018-01-01T00:09:05.450Z,135.27
2018-01-01T00:11:33.247Z,25.67
2018-01-01T00:14:00.779Z,36.57
2018-01-01T00:16:28.321Z,26.80
2018-01-01T00:18:55.860Z,32.40
2018-01-01T00:21:23.392Z,50.63
2018-01-01T00:23:50.216Z,32.00
2018-01-01T00:26:17.731Z,39.70
2018-01-01T00:28:45.265Z,15.07
2018-01-01T00:31:12.825Z,21.47
2018-01-01T00:33:40.349Z,19.30
2018-01-01T00:36:08.173Z,22.57
2018-01-01T00:38:35.685Z,21.23
2018-01-01T00:41:03.212Z,13.43
2018-01-01T00:43:30.813Z,10.67
2018-01-01T00:45:58.332Z,9.53
2018-01-01T00:48:25.853Z,10.83
2018-01-01T00:50:53.383Z,11.60
2018-01-01T00:53:20.899Z,11.73
2018-01-01T00:55:48.418Z,11.00
2018-01-01T00:58:15.983Z,8.80
2018-01-01T01:00:43.532Z,9.97
2018-01-01T01:03:11.196Z,8.93
2018-01-01T01:05:38.710Z,8.57
2018-01-01T01:08:06.224Z,7.63
2018-01-01T01:10:33.824Z,6.87
2018-01-01T01:13:01.328Z,19.07
2018-01-01T01:15:28.872Z,7.17
2018-01-01T01:17:56.388Z,6.20
2018-01-01T01:20:23.901Z,5.57
2018-01-01T01:22:51.400Z,5.53
2018-01-01T01:25:18.913Z,5.50
2018-01-01T01:27:46.438Z,5.40
2018-01-01T01:30:13.948Z,5.90
2018-01-01T01:32:41.468Z,5.50
2018-01-01T01:35:08.979Z,5.13
2018-01-01T01:37:36.511Z,5.17
2018-01-01T01:40:04.027Z,5.13
2018-01-01T01:42:31.539Z,4.77
2018-01-01T01:44:59.066Z,5.50
2018-01-01T01:47:26.617Z,5.37
2018-01-01T01:49:54.131Z,5.40
2018-01-01T01:52:21.653Z,5.50
2018-01-01T01:54:49.170Z,6.10
2018-01-01T01:57:16.680Z,5.50
2018-01-01T01:59:44.181Z,5.43
2018-01-01T02:02:11.697Z,5.77
2018-01-01T02:04:39.228Z,5.90
2018-01-01T02:07:06.749Z,6.37
2018-01-01T02:09:34.264Z,6.30
2018-01-01T02:12:01.781Z,5.13
2018-01-01T02:14:29.295Z,5.60
2018-01-01T02:16:56.798Z,6.07
2018-01-01T02:19:24.314Z,6.67
2018-01-01T02:21:51.822Z,6.53
2018-01-01T02:24:19.332Z,6.10
2018-01-01T02:26:46.846Z,6.30
2018-01-01T02:29:14.359Z,7.50
2018-01-01T02:31:41.883Z,6.77
2018-01-01T02:34:09.397Z,6.83
2018-01-01T02:36:36.925Z,6.80
2018-01-01T02:39:04.442Z,6.30
2018-01-01T02:41:31.946Z,5.90
2018-01-01T02:43:59.462Z,6.40
2018-01-01T02:46:26.984Z,7.00
2018-01-01T02:48:54.497Z,6.70
2018-01-01T02:51:22.022Z,5.93
2018-01-01T02:53:49.537Z,6.20
2018-01-01T02:56:17.051Z,5.77
2018-01-01T02:58:44.555Z,5.00
2018-01-01T03:01:12.060Z,5.23
2018-01-01T03:03:39.575Z,5.00
2018-01-01T03:06:07.071Z,4.50
2018-01-01T03:08:34.572Z,3.80
2018-01-01T03:11:02.082Z,4.00
2018-01-01T03:13:29.584Z,3.70
2018-01-01T03:15:57.080Z,3.60
2018-01-01T03:18:24.584Z,2.90
2018-01-01T03:20:52.090Z,3.10
2018-01-01T03:23:19.617Z,3.07
2018-01-01T03:25:47.125Z,2.80
2018-01-01T03:28:14.638Z,2.80
2018-01-01T03:30:42.144Z,2.80
2018-01-01T03:33:09.649Z,2.73
2018-01-01T03:35:37.148Z,2.40
2018-01-01T03:38:04.653Z,2.03
2018-01-01T03:40:32.153Z,2.57
2018-01-01T03:42:59.658Z,2.30
2018-01-01T03:45:27.179Z,2.07
2018-01-01T03:47:54.711Z,2.50
2018-01-01T03:50:22.217Z,2.27
2018-01-01T03:52:49.725Z,2.20
2018-01-01T03:55:17.240Z,1.90
2018-01-01T03:57:44.758Z,1.90
2018-01-01T04:00:12.272Z,2.10
2018-01-01T04:02:39.789Z,2.10
2018-01-01T04:05:07.293Z,2.17
2018-01-01T04:07:34.814Z,2.03
2018-01-01T04:10:02.324Z,1.77
2018-01-01T04:12:29.826Z,1.73
2018-01-01T04:14:57.344Z,1.90
2018-01-01T04:17:24.860Z,2.20
2018-01-01T04:19:52.360Z,1.97
2018-01-01T04:22:19.881Z,1.77
2018-01-01T04:24:47.386Z,2.00
2018-01-01T04:27:14.888Z,1.70
2018-01-01T04:29:42.404Z,1.77
2018-01-01T04:32:09.916Z,1.87
2018-01-01T04:34:37.413Z,1.57
2018-01-01T04:37:04.926Z,1.73
2018-01-01T04:39:32.436Z,1.77
2018-01-01T04:41:59.944Z,1.73
2018-01-01T04:44:27.449Z,1.97
2018-01-01T04:46:54.956Z,2.23
2018-01-01T04:49:22.475Z,1.60
2018-01-01T04:51:49.972Z,2.00
2018-01-01T04:54:17.482Z,1.67
2018-01-01T04:56:44.986Z,1.47
2018-01-01T04:59:12.492Z,1.80
2018-01-01T05:01:40.005Z,1.60
2018-01-01T05:04:07.513Z,2.07
2018-01-01T05:06:35.017Z,1.70
2018-01-01T05:09:02.573Z,1.63
2018-01-01T05:11:30.080Z,1.83
2018-01-01T05:13:57.588Z,1.67
2018-01-01T05:16:25.093Z,1.70
2018-01-01T05:18:52.607Z,1.60
2018-01-01T05:21:20.102Z,1.67
2018-01-01T05:23:47.624Z,1.67
2018-01-01T05:26:15.128Z,1.13
2018-01-01T05:28:42.633Z,1.50
2018-01-01T05:31:10.148Z,1.60
2018-01-01T05:33:37.660Z,1.50
2018-01-01T05:36:05.181Z,1.57
2018-01-01T05:38:32.685Z,1.43
2018-01-01T05:41:00.185Z,1.80
2018-01-01T05:43:27.706Z,1.37
2018-01-01T05:45:55.204Z,2.10
2018-01-01T05:48:22.707Z,1.80
2018-01-01T05:50:50.208Z,1.70
2018-01-01T05:53:17.717Z,1.90
2018-01-01T05:55:45.224Z,1.70
2018-01-01T05:58:12.730Z,1.90
2018-01-01T06:00:40.245Z,1.70
2018-01-01T06:03:07.752Z,1.90
2018-01-01T06:05:35.261Z,1.83
2018-01-01T06:08:02.780Z,1.80
2018-01-01T06:10:30.291Z,1.73
2018-01-01T06:12:57.802Z,1.53
2018-01-01T06:15:25.311Z,1.93
2018-01-01T06:17:52.823Z,1.30
2018-01-01T06:20:20.326Z,1.80
2018-01-01T06:22:47.834Z,1.67
2018-01-01T06:25:15.334Z,1.73
2018-01-01T06:27:42.836Z,2.37
2018-01-01T06:30:10.341Z,1.43
2018-01-01T06:32:37.852Z,1.33
2018-01-01T06:35:05.360Z,1.70
2018-01-01T06:37:32.864Z,1.50
2018-01-01T06:40:00.373Z,1.67
2018-01-01T06:42:27.881Z,1.67
2018-01-01T06:44:55.396Z,1.50
2018-01-01T06:47:22.918Z,1.70
2018-01-01T06:49:50.420Z,1.60
2018-01-01T06:52:17.943Z,1.70
2018-01-01T06:54:45.469Z,1.40
2018-01-01T06:57:12.976Z,1.50
2018-01-01T06:59:40.486Z,1.60
2018-01-01T07:02:08.029Z,1.50
2018-01-01T07:04:35.537Z,1.60
2018-01-01T07:07:03.044Z,1.27
2018-01-01T07:09:30.575Z,1.70
2018-01-01T07:11:58.089Z,1.50
2018-01-01T07:14:25.592Z,1.63
2018-01-01T07:16:53.092Z,1.60
2018-01-01T07:19:20.591Z,1.70
2018-01-01T07:21:48.099Z,1.73
2018-01-01T07:24:15.610Z,1.50
2018-01-01T07:26:43.127Z,1.47
2018-01-01T07:29:10.636Z,1.60
2018-01-01T07:31:38.137Z,1.60
2018-01-01T07:34:05.641Z,1.50
2018-01-01T07:36:33.146Z,1.57
2018-01-01T07:39:00.670Z,1.50
2018-01-01T07:41:28.181Z,1.33
2018-01-01T07:43:55.686Z,1.73
2018-01-01T07:46:23.197Z,1.20
2018-01-01T07:48:50.700Z,1.60
2018-01-01T07:51:18.201Z,1.40
2018-01-01T07:53:45.700Z,1.53
2018-01-01T07:56:13.199Z,2.00
2018-01-01T07:58:40.691Z,1.40
2018-01-01T08:01:08.188Z,1.43
2018-01-01T08:03:35.684Z,1.30
2018-01-01T08:06:03.185Z,1.67
2018-01-01T08:08:30.695Z,1.20
2018-01-01T08:10:58.213Z,1.53
2018-01-01T08:13:25.728Z,1.40
2018-01-01T08:15:53.225Z,1.10
2018-01-01T08:18:20.736Z,1.10
2018-01-01T08:20:48.239Z,1.57
2018-01-01T08:23:15.733Z,1.43
2018-01-01T08:25:43.224Z,2.07
2018-01-01T08:28:10.741Z,1.80
2018-01-01T08:30:38.242Z,1.13
2018-01-01T08:33:05.742Z,1.33
2018-01-01T08:35:33.257Z,1.53
2018-01-01T08:38:00.761Z,1.37
2018-01-01T08:40:28.260Z,1.20
2018-01-01T08:42:55.772Z,1.47
2018-01-01T08:45:23.280Z,1.40
2018-01-01T08:47:50.779Z,1.47
2018-01-01T08:50:18.289Z,1.53
2018-01-01T08:52:45.790Z,1.40
2018-01-01T08:55:13.321Z,1.50
2018-01-01T08:57:40.834Z,1.30
2018-01-01T09:00:08.336Z,1.00
2018-01-01T09:02:35.847Z,1.10
2018-01-01T09:05:03.353Z,1.03
2018-01-01T09:07:30.861Z,1.00
2018-01-01T09:09:58.366Z,1.13
2018-01-01T09:12:25.881Z,0.90
2018-01-01T09:14:53.395Z,10.07
2018-01-01T09:17:20.934Z,3.17
2018-01-01T09:19:48.505Z,5.77
2018-01-01T09:22:16.027Z,1.33
2018-01-01T09:24:43.534Z,1.03
2018-01-01T09:27:11.053Z,0.90
2018-01-01T09:29:38.560Z,1.27
2018-01-01T09:32:06.069Z,1.00
2018-01-01T09:34:33.583Z,1.03
2018-01-01T09:37:01.097Z,1.17
2018-01-01T09:39:28.622Z,1.20
2018-01-01T09:41:56.135Z,1.00
2018-01-01T09:44:23.657Z,1.17
2018-01-01T09:46:51.169Z,3.13
2018-01-01T09:49:18.713Z,0.90
2018-01-01T09:51:46.249Z,0.97
2018-01-01T09:54:13.877Z,0.83
2018-01-01T09:56:41.426Z,1.10
2018-01-01T09:59:08.945Z,1.90
2018-01-01T10:01:36.472Z,0.87
2018-01-01T10:04:04.006Z,1.50
2018-01-01T10:06:31.658Z,0.83
2018-01-01T10:08:59.162Z,0.70
2018-01-01T10:11:26.676Z,1.10
2018-01-01T10:13:54.188Z,0.90
2018-01-01T10:16:21.698Z,1.20
2018-01-01T10:18:49.255Z,1.30
2018-01-01T10:21:16.762Z,1.00
2018-01-01T10:23:44.266Z,1.17
2018-01-01T10:26:11.783Z,1.80
2018-01-01T10:28:39.337Z,1.20
2018-01-01T10:31:06.853Z,1.10
2018-01-01T10:33:34.365Z,1.00
2018-01-01T10:36:01.902Z,0.90
2018-01-01T10:38:29.424Z,1.20
2018-01-01T10:40:57.991Z,1.13
2018-01-01T10:43:25.490Z,1.43
2018-01-01T10:45:52.997Z,1.00
2018-01-01T10:48:20.504Z,1.30
2018-01-01T10:50:48.020Z,1.63
2018-01-01T10:53:15.552Z,1.10
2018-01-01T10:55:43.061Z,0.80
2018-01-01T10:58:10.583Z,0.90
2018-01-01T11:00:38.102Z,0.90
2018-01-01T11:03:05.610Z,0.90
2018-01-01T11:05:33.123Z,1.37
2018-01-01T11:08:00.647Z,1.40
2018-01-01T11:10:28.174Z,0.90
2018-01-01T11:12:55.682Z,0.93
2018-01-01T11:15:23.192Z,1.40
2018-01-01T11:17:50.696Z,1.10
2018-01-01T11:20:18.212Z,1.40
2018-01-01T11:22:45.716Z,1.03
2018-01-01T11:25:13.217Z,0.87
2018-01-01T11:27:40.737Z,1.00
2018-01-01T11:30:08.253Z,1.20
2018-01-01T11:32:35.764Z,1.30
2018-01-01T11:35:03.300Z,1.20
2018-01-01T11:37:30.810Z,1.60
2018-01-01T11:39:58.325Z,1.30
2018-01-01T11:42:25.830Z,1.50
2018-01-01T11:44:53.340Z,1.30
2018-01-01T11:47:20.858Z,1.37
2018-01-01T11:49:48.363Z,1.20
2018-01-01T11:52:15.878Z,1.27
2018-01-01T11:54:43.398Z,1.13
2018-01-01T11:57:10.909Z,1.07
2018-01-01T11:59:38.420Z,1.13
2018-01-01T12:02:05.951Z,1.43
2018-01-01T12:04:33.468Z,1.40
2018-01-01T12:07:00.976Z,1.00
2018-01-01T12:09:28.489Z,1.90
2018-01-01T12:11:55.992Z,1.70
2018-01-01T12:14:23.503Z,1.17
2018-01-01T12:16:51.013Z,1.27
2018-01-01T12:19:18.524Z,1.27
2018-01-01T12:21:46.045Z,1.20
2018-01-01T12:24:13.556Z,1.33
2018-01-01T12:26:41.067Z,1.10
2018-01-01T12:29:08.597Z,1.40
2018-01-01T12:31:36.106Z,0.90
2018-01-01T12:34:03.612Z,1.20
2018-01-01T12:36:31.126Z,1.20
2018-01-01T12:38:58.633Z,1.13
2018-01-01T12:41:26.142Z,1.20
2018-01-01T12:43:53.660Z,0.90
2018-01-01T12:46:21.161Z,1.07
2018-01-01T12:48:48.982Z,1.10
2018-01-01T12:51:16.480Z,1.00
2018-01-01T12:53:43.989Z,1.27
2018-01-01T12:56:11.504Z,0.93
2018-01-01T12:58:39.134Z,1.33
2018-01-01T13:01:06.638Z,0.90
2018-01-01T13:03:34.145Z,1.07
2018-01-01T13:06:01.660Z,1.30
2018-01-01T13:08:29.177Z,1.10
2018-01-01T13:10:56.693Z,1.10
2018-01-01T13:13:24.206Z,1.50
2018-01-01T13:15:51.710Z,1.00
2018-01-01T13:18:19.312Z,1.20
2018-01-01T13:20:46.855Z,0.90
2018-01-01T13:23:14.361Z,1.03
2018-01-01T13:25:41.874Z,1.03
2018-01-01T13:28:09.433Z,0.90
2018-01-01T13:30:36.964Z,1.07
2018-01-01T13:33:04.558Z,0.97
2018-01-01T13:35:32.067Z,1.00
2018-01-01T13:37:59.582Z,1.00
2018-01-01T13:40:27.100Z,1.00
2018-01-01T13:42:54.625Z,0.80
2018-01-01T13:45:22.119Z,1.20
2018-01-01T13:47:49.713Z,1.40
2018-01-01T13:50:17.203Z,0.80
2018-01-01T13:52:44.754Z,1.10
2018-01-01T13:55:12.273Z,0.70
2018-01-01T13:57:39.784Z,1.17
2018-01-01T14:00:07.414Z,1.10
2018-01-01T14:02:34.932Z,1.10
2018-01-01T14:05:02.508Z,1.60
2018-01-01T14:07:30.056Z,1.20
2018-01-01T14:09:57.656Z,1.10
2018-01-01T14:12:25.170Z,1.23
2018-01-01T14:14:52.787Z,1.30
2018-01-01T14:17:20.302Z,1.97
2018-01-01T14:19:47.816Z,1.70
2018-01-01T14:22:15.318Z,1.10
2018-01-01T14:24:42.828Z,0.80
2018-01-01T14:27:10.332Z,1.27
2018-01-01T14:29:37.860Z,1.43
2018-01-01T14:32:05.377Z,1.80
2018-01-01T14:34:32.957Z,1.00
2018-01-01T14:37:00.510Z,1.20
2018-01-01T14:39:28.024Z,1.00
2018-01-01T14:41:55.540Z,1.20
2018-01-01T14:44:23.050Z,1.10
2018-01-01T14:46:50.669Z,1.10
2018-01-01T14:49:18.183Z,1.23
2018-01-01T14:51:45.740Z,1.03
2018-01-01T14:54:13.281Z,1.20
2018-01-01T14:56:40.786Z,0.70
2018-01-01T14:59:08.288Z,1.10
2018-01-01T15:01:35.792Z,1.23
2018-01-01T15:04:03.288Z,1.40
2018-01-01T15:06:30.826Z,0.90
2018-01-01T15:08:58.341Z,0.93
2018-01-01T15:11:25.852Z,1.20
2018-01-01T15:13:53.386Z,1.00
2018-01-01T15:16:20.952Z,1.30
2018-01-01T15:18:48.521Z,1.17
2018-01-01T15:21:16.387Z,1.07
2018-01-01T15:23:43.921Z,1.17
2018-01-01T15:26:11.481Z,1.50
2018-01-01T15:28:39.072Z,1.50
2018-01-01T15:31:06.588Z,1.33
2018-01-01T15:33:34.088Z,1.50
2018-01-01T15:36:01.593Z,1.43
2018-01-01T15:38:29.105Z,1.40
2018-01-01T15:40:56.615Z,1.50
2018-01-01T15:43:24.145Z,1.30
2018-01-01T15:45:51.655Z,1.43
2018-01-01T15:48:19.168Z,1.30
2018-01-01T15:50:46.802Z,1.30
2018-01-01T15:53:14.307Z,1.37
2018-01-01T15:55:41.806Z,1.73
2018-01-01T15:58:09.395Z,1.37
2018-01-01T16:00:36.921Z,1.43
2018-01-01T16:03:04.424Z,1.60
2018-01-01T16:05:31.929Z,1.37
2018-01-01T16:07:59.518Z,1.67
2018-01-01T16:10:27.030Z,1.47
2018-01-01T16:12:54.544Z,1.60
2018-01-01T16:15:22.122Z,1.30
2018-01-01T16:17:49.624Z,2.17
2018-01-01T16:20:17.171Z,1.60
2018-01-01T16:22:44.673Z,1.20
2018-01-01T16:25:12.169Z,1.47
2018-01-01T16:27:39.663Z,1.50
2018-01-01T16:30:07.235Z,1.20
2018-01-01T16:32:34.745Z,1.33
2018-01-01T16:35:02.248Z,1.57
2018-01-01T16:37:29.752Z,1.37
2018-01-01T16:39:57.273Z,1.20
2018-01-01T16:42:24.775Z,1.17
2018-01-01T16:44:52.387Z,1.20
2018-01-01T16:47:19.897Z,1.10
2018-01-01T16:49:47.399Z,1.23
2018-01-01T16:52:14.933Z,1.83
2018-01-01T16:54:42.516Z,1.20
2018-01-01T16:57:10.042Z,1.40
2018-01-01T16:59:37.675Z,1.07
2018-01-01T17:02:05.180Z,1.20
2018-01-01T17:04:32.699Z,1.50
2018-01-01T17:07:00.209Z,1.23
2018-01-01T17:09:27.740Z,1.33
2018-01-01T17:11:55.349Z,1.40
2018-01-01T17:14:22.856Z,1.90
2018-01-01T17:16:50.481Z,1.53
2018-01-01T17:19:17.991Z,2.03
2018-01-01T17:21:45.596Z,1.90
2018-01-01T17:24:13.145Z,1.50
2018-01-01T17:26:40.721Z,1.50
2018-01-01T17:29:08.215Z,1.60
2018-01-01T17:31:35.703Z,1.60
2018-01-01T17:34:03.217Z,2.10
2018-01-01T17:36:30.712Z,1.90
2018-01-01T17:38:58.247Z,2.50
2018-01-01T17:41:25.745Z,2.50
2018-01-01T17:43:53.292Z,2.70
2018-01-01T17:46:20.798Z,2.03
2018-01-01T17:48:48.300Z,2.37
2018-01-01T17:51:15.812Z,2.53
2018-01-01T17:53:43.313Z,2.97
2018-01-01T17:56:10.816Z,2.83
2018-01-01T17:58:38.317Z,3.73
2018-01-01T18:01:05.828Z,4.80
2018-01-01T18:03:33.330Z,4.13
2018-01-01T18:06:00.828Z,4.10
2018-01-01T18:08:28.340Z,4.47
2018-01-01T18:10:55.847Z,5.57
2018-01-01T18:13:23.359Z,5.30
2018-01-01T18:15:50.864Z,5.10
2018-01-01T18:18:18.369Z,4.93
2018-01-01T18:20:45.868Z,4.13
2018-01-01T18:23:13.377Z,4.07
2018-01-01T18:25:40.885Z,3.87
2018-01-01T18:28:08.391Z,3.90
2018-01-01T18:30:35.886Z,4.13
2018-01-01T18:33:03.432Z,4.20
2018-01-01T18:35:30.945Z,4.30
2018-01-01T18:37:58.450Z,3.53
2018-01-01T18:40:25.969Z,4.67
2018-01-01T18:42:53.476Z,4.10
2018-01-01T18:45:21.006Z,4.13
2018-01-01T18:47:48.539Z,3.90
2018-01-01T18:50:16.044Z,4.67
2018-01-01T18:52:43.553Z,4.03
2018-01-01T18:55:11.061Z,4.20
2018-01-01T18:57:38.569Z,3.97
2018-01-01T19:00:06.077Z,3.70
2018-01-01T19:02:33.601Z,3.73
2018-01-01T19:05:01.108Z,3.67
2018-01-01T19:07:28.650Z,4.03
2018-01-01T19:09:56.154Z,3.63
2018-01-01T19:12:23.660Z,4.10
2018-01-01T19:14:51.157Z,4.53
2018-01-01T19:17:18.699Z,4.37
2018-01-01T19:19:46.224Z,4.47
2018-01-01T19:22:13.748Z,3.90
2018-01-01T19:24:41.274Z,3.87
2018-01-01T19:27:08.789Z,3.50
2018-01-01T19:29:36.284Z,3.77
2018-01-01T19:32:03.797Z,3.73
2018-01-01T19:34:31.321Z,3.67
2018-01-01T19:36:58.872Z,4.10
2018-01-01T19:39:26.399Z,3.43
2018-01-01T19:41:53.917Z,3.47
2018-01-01T19:44:21.422Z,3.40
2018-01-01T19:46:48.949Z,3.90
2018-01-01T19:49:16.469Z,3.73
2018-01-01T19:51:43.980Z,3.77
2018-01-01T19:54:11.527Z,4.03
2018-01-01T19:56:39.058Z,3.57
2018-01-01T19:59:06.609Z,4.00
2018-01-01T20:01:34.117Z,3.47
2018-01-01T20:04:01.625Z,3.53
2018-01-01T20:06:29.152Z,3.00
2018-01-01T20:08:56.674Z,3.27
2018-01-01T20:11:24.181Z,3.40
2018-01-01T20:13:51.692Z,3.40
2018-01-01T20:16:19.208Z,3.90
2018-01-01T20:18:46.708Z,3.60
2018-01-01T20:21:14.218Z,3.37
2018-01-01T20:23:41.772Z,3.40
2018-01-01T20:26:09.302Z,3.20
2018-01-01T20:28:36.822Z,3.50
2018-01-01T20:31:04.338Z,3.60
2018-01-01T20:33:31.842Z,3.20
2018-01-01T20:35:59.349Z,2.63
2018-01-01T20:38:26.893Z,2.70
2018-01-01T20:40:54.407Z,2.80
2018-01-01T20:43:21.912Z,2.80
2018-01-01T20:45:49.415Z,2.90
2018-01-01T20:48:16.930Z,2.60
2018-01-01T20:50:44.440Z,2.70
2018-01-01T20:53:11.944Z,2.97
2018-01-01T20:55:39.441Z,2.73
2018-01-01T20:58:06.940Z,2.60
2018-01-01T21:00:34.470Z,2.37
2018-01-01T21:03:01.972Z,2.30
2018-01-01T21:05:29.477Z,2.10
2018-01-01T21:07:56.988Z,2.23
2018-01-01T21:10:24.484Z,2.40
2018-01-01T21:12:51.980Z,2.50
2018-01-01T21:15:19.475Z,2.47
2018-01-01T21:17:46.978Z,2.23
2018-01-01T21:20:14.485Z,2.20
2018-01-01T21:22:41.995Z,2.60
2018-01-01T21:25:09.492Z,1.90
2018-01-01T21:27:37.005Z,2.13
2018-01-01T21:30:04.513Z,2.50
2018-01-01T21:32:32.035Z,2.53
2018-01-01T21:34:59.533Z,2.43
2018-01-01T21:37:27.070Z,2.50
2018-01-01T21:39:54.576Z,2.40
2018-01-01T21:42:22.075Z,2.27
2018-01-01T21:44:49.713Z,2.20
2018-01-01T21:47:17.220Z,2.37
2018-01-01T21:49:44.748Z,2.33
2018-01-01T21:52:12.253Z,2.53
2018-01-01T21:54:39.768Z,2.43
2018-01-01T21:57:07.292Z,2.43
2018-01-01T21:59:34.784Z,2.53
2018-01-01T22:02:02.276Z,2.73
2018-01-01T22:04:29.783Z,2.87
2018-01-01T22:06:57.291Z,2.30
2018-01-01T22:09:24.797Z,2.60
2018-01-01T22:11:52.301Z,2.30
2018-01-01T22:14:19.829Z,2.53
2018-01-01T22:16:47.344Z,2.83
2018-01-01T22:19:14.866Z,2.67
2018-01-01T22:21:42.370Z,2.40
2018-01-01T22:24:09.876Z,2.47
2018-01-01T22:26:37.411Z,2.57
2018-01-01T22:29:04.908Z,2.43
2018-01-01T22:31:32.423Z,2.50
2018-01-01T22:33:59.921Z,2.57
2018-01-01T22:36:27.448Z,2.33
2018-01-01T22:38:54.992Z,2.70
2018-01-01T22:41:22.508Z,2.77
2018-01-01T22:43:50.013Z,2.90
2018-01-01T22:46:17.527Z,3.07
2018-01-01T22:48:45.036Z,2.90
2018-01-01T22:51:12.525Z,3.05
2018-01-01T22:53:40.032Z,2.83
2018-01-01T22:56:07.571Z,2.70
2018-01-01T22:58:35.083Z,2.87
2018-01-01T23:01:02.601Z,3.00
2018-01-01T23:03:30.112Z,2.87
2018-01-01T23:05:57.613Z,2.50
2018-01-01T23:08:25.122Z,2.60
2018-01-01T23:10:52.627Z,2.40
2018-01-01T23:13:20.140Z,2.90
2018-01-01T23:15:47.649Z,2.80
2018-01-01T23:18:15.160Z,2.80
2018-01-01T23:20:42.663Z,2.37
2018-01-01T23:23:10.174Z,3.13
2018-01-01T23:25:37.688Z,2.60
2018-01-01T23:28:05.188Z,2.27
2018-01-01T23:30:32.710Z,3.10
2018-01-01T23:33:00.220Z,2.60
2018-01-01T23:35:27.720Z,2.80
2018-01-01T23:37:55.241Z,2.70
2018-01-01T23:40:22.741Z,2.60
2018-01-01T23:42:50.236Z,2.80
2018-01-01T23:45:17.744Z,2.73
2018-01-01T23:47:45.248Z,2.73
2018-01-01T23:50:12.761Z,2.60
2018-01-01T23:52:40.265Z,3.33
2018-01-01T23:55:07.784Z,2.90
2018-01-01T23:57:35.295Z,2.50
